createdAt,value
2017-12-16T00:06:43.998Z,999.0
2017-12-16T00:16:58.255Z,999.1
2017-12-16T00:27:12.460Z,999.1
2017-12-16T00:37:26.193Z,999.1
2017-12-16T00:47:39.497Z,999.0
2017-12-16T00:57:53.053Z,999.1
2017-12-16T01:08:05.221Z,999.2
2017-12-16T01:18:16.696Z,999.3
2017-12-16T01:28:30.851Z,999.4
2017-12-16T01:38:44.970Z,999.5
2017-12-16T01:48:59.316Z,999.7
2017-12-16T01:59:13.475Z,999.8
2017-12-16T02:09:27.379Z,1000.1
2017-12-16T02:19:40.649Z,1000.1
2017-12-16T02:29:54.962Z,1000.1
2017-12-16T02:40:08.991Z,1000.3
2017-12-16T02:50:22.335Z,1000.5
2017-12-16T03:00:35.570Z,1000.5
2017-12-16T03:10:48.694Z,1000.5
2017-12-16T03:21:00.328Z,1000.7
2017-12-16T03:31:14.612Z,1000.6
2017-12-16T03:41:28.845Z,1000.7
2017-12-16T03:51:40.870Z,1000.8
2017-12-16T04:01:54.940Z,1001.0
2017-12-16T04:12:08.550Z,1001.0
2017-12-16T04:22:22.828Z,1000.9
2017-12-16T04:32:36.520Z,1001.0
2017-12-16T04:42:50.185Z,1001.2
2017-12-16T04:53:04.580Z,1001.3
2017-12-16T05:03:18.499Z,1001.2
2017-12-16T05:13:32.840Z,1001.4
2017-12-16T05:23:46.795Z,1001.4
2017-12-16T05:34:01.298Z,1001.6
2017-12-16T05:44:15.549Z,1001.8
2017-12-16T05:54:29.945Z,1001.7
2017-12-16T06:04:43.888Z,1001.8
2017-12-16T06:14:58.283Z,1002.0
2017-12-16T06:25:12.310Z,1002.0
2017-12-16T06:35:25.970Z,1002.1
2017-12-16T06:45:38.077Z,1002.3
2017-12-16T06:55:51.974Z,1002.4
2017-12-16T07:06:36.738Z,1002.5
2017-12-16T07:16:50.367Z,1002.7
2017-12-16T07:27:05.075Z,1003.0
2017-12-16T07:37:18.761Z,1003.2
2017-12-16T07:47:32.491Z,1003.4
2017-12-16T07:57:45.892Z,1003.6
2017-12-16T08:07:57.070Z,1003.6
2017-12-16T08:18:41.601Z,1003.6
2017-12-16T08:28:55.157Z,1003.8
2017-12-16T08:39:09.603Z,1003.9
2017-12-16T08:49:23.767Z,1004.0
2017-12-16T08:59:37.941Z,1004.3
2017-12-16T09:09:52.155Z,1004.5
2017-12-16T09:20:06.539Z,1004.5
2017-12-16T09:30:20.718Z,1004.6
2017-12-16T09:40:34.980Z,1004.6
2017-12-16T09:50:49.446Z,1004.8
2017-12-16T10:01:03.807Z,1004.9
2017-12-16T10:11:17.784Z,1004.9
2017-12-16T10:21:31.697Z,1005.0
2017-12-16T10:31:46.167Z,1005.0
2017-12-16T10:42:00.144Z,1005.1
2017-12-16T10:52:14.428Z,1005.3
2017-12-16T11:02:28.749Z,1005.2
2017-12-16T11:12:43.546Z,1005.3
2017-12-16T11:22:57.361Z,1005.3
2017-12-16T11:33:11.413Z,1005.5
2017-12-16T11:43:25.870Z,1005.5
2017-12-16T11:53:39.472Z,1005.5
2017-12-16T12:03:53.163Z,1005.4
2017-12-16T12:14:07.539Z,1005.3
2017-12-16T12:24:21.440Z,1005.5
2017-12-16T12:35:23.966Z,1005.6
2017-12-16T12:46:09.160Z,1005.3
2017-12-16T12:56:54.769Z,1005.7
2017-12-16T13:07:40.291Z,1005.7
2017-12-16T13:18:31.990Z,1005.6
2017-12-16T13:28:54.821Z,1005.7
2017-12-16T13:39:12.982Z,1006.0
2017-12-16T13:50:02.431Z,1006.0
2017-12-16T14:00:18.851Z,1006.0
2017-12-16T14:10:34.784Z,1006.2
2017-12-16T14:20:50.418Z,1006.4
2017-12-16T14:31:45.929Z,1006.5
2017-12-16T14:42:06.451Z,1006.6
2017-12-16T14:52:26.271Z,1006.8
2017-12-16T15:02:40.234Z,1007.0
2017-12-16T15:13:30.429Z,1007.0
2017-12-16T15:23:43.842Z,1007.1
2017-12-16T15:34:28.662Z,1007.2
2017-12-16T15:44:42.095Z,1007.4
2017-12-16T15:54:56.009Z,1007.5
2017-12-16T16:06:49.188Z,1007.7
2017-12-16T16:17:03.613Z,1007.9
2017-12-16T16:27:17.570Z,1007.9
2017-12-16T16:38:02.267Z,1008.2
2017-12-16T16:48:15.458Z,1008.2
2017-12-16T16:58:29.082Z,1008.4
2017-12-16T17:08:43.199Z,1008.6
2017-12-16T17:18:57.695Z,1008.7
2017-12-16T17:29:12.091Z,1008.8
2017-12-16T17:39:56.938Z,1008.9
2017-12-16T17:50:10.749Z,1009.1
2017-12-16T18:00:24.863Z,1009.2
2017-12-16T18:10:39.177Z,1009.3
2017-12-16T18:20:50.451Z,1009.6
2017-12-16T18:31:01.235Z,1009.6
2017-12-16T18:41:14.528Z,1009.7
2017-12-16T18:52:12.072Z,1009.8
2017-12-16T19:03:18.907Z,1009.8
2017-12-16T19:14:25.794Z,1010.0
2017-12-16T19:24:48.736Z,1010.2
2017-12-16T19:36:07.185Z,1010.2
2017-12-16T19:47:18.759Z,1010.4
2017-12-16T19:57:51.038Z,1010.5
2017-12-16T20:08:18.935Z,1010.6
2017-12-16T20:19:07.776Z,1010.5
2017-12-16T20:29:58.381Z,1010.7
2017-12-16T20:40:49.319Z,1011.0
2017-12-16T20:51:42.207Z,1011.0
2017-12-16T21:02:03.955Z,1011.1
2017-12-16T21:12:52.139Z,1011.2
2017-12-16T21:23:05.709Z,1011.3
2017-12-16T21:33:20.278Z,1011.3
2017-12-16T21:43:33.977Z,1011.3
2017-12-16T21:53:47.346Z,1011.3
2017-12-16T22:04:01.687Z,1011.5
2017-12-16T22:14:15.849Z,1011.6
2017-12-16T22:24:26.885Z,1011.6
2017-12-16T22:34:40.240Z,1011.6
2017-12-16T22:44:54.390Z,1012.0
2017-12-16T22:55:07.809Z,1012.0
2017-12-16T23:05:21.891Z,1012.0
2017-12-16T23:16:06.635Z,1012.1
2017-12-16T23:26:52.089Z,1012.2
2017-12-16T23:37:05.988Z,1012.2
2017-12-16T23:47:19.868Z,1012.3
2017-12-16T23:57:34.478Z,1012.3
